Главная страница
METAR-TAF:

METAR-TAF

Аэропорты :

Багдад, Ирак

широта: 33-15-45N, долгота: 44-14-04E, высота над уровнем моря: 35 м

Текущие метеонаблюдения

Эта сводка был подготовлена 50 минут назад, в 00:00 UTC
Ветер 6 Узел от западно-северо-западный
Температура 22°C
Влажность 31%
Давление 1013 hPa
Видимость 10 км и более
Нет облачности ниже 1500 м, и нет кучево-дождевой облачности

METAR: ORBI 190000Z 29006KT CAVOK 22/04 Q1013 NOSIG

Время: 03:50 (00:50 UTC)

Прогноз

Эта сводка был подготовлена 13 часа и 50 минут назад, в 11:00 UTC
Прогноз действительный с 18-го 12 UTC до 19-го 12 UTC
Ветер 8 Узел от северо-западный
Видимость: 8000 м

TAF: ORBI 181100Z 1812/1912 32008KT 8000 NSC

Метеонаблюдения и прогнозы для более 4000 аэропортов (сводки METAR и TAF).

Имеющиеся станции представлены на карте желтыми и красными точками.

Чтобы увидеть название станции, наведите на нее мышь.

Затем щелкните, чтобы увидеть метеонаблюдения и метеопрогнозы.

Управление картой: чтобы увеличить масштаб, щелкните зеленые кнопки с черным крестиком; чтобы уменьшить масштаб, щелкните зеленую кнопку с тире; для просмотра соседних карт щелкайте зеленые стрелки.


METAR-TAF: